x

Point Arguello, Ca (ptgc1) Weather Station

10:00am - Wed 1st Oct 2014 All times are PDT. -7 hours from GMT.

  • Wind
    2mph, 3mph gusts
  • Air Temp 63°f
  • Sea Pressure 1010.6mb
  • Point Arguello, Ca
  • Point Arguello, Ca

More Historic Weather Station data

Upgrade to MSW Pro to gain access to the past 30 days of data for over 8000 Wavebouys and Weather Stations around the globe.

Join Pro

Comparision Forecast

View Surf forecast
   
Wed 10/01 10:00am 2 3 mph 1010.6mb 63f
9:00am  -  1 mph 1010.2mb 63f
8:00am 2
mph
1009.5mb 65f
7:00am 6 7 mph 1008.8mb 61f
6:00am 15 17 mph 1008.1mb 63f
5:00am 16 17 mph 1007.8mb 60f
4:00am 17 18 mph 1007.5mb 57f
3:00am 17 18 mph 1007.4mb 57f
2:00am 20 21 mph 1008mb 58f
1:00am 24 25 mph 1008mb 59f
12:00am 25 28 mph 1008.6mb 59f
Tue 09/30 11:00pm 23 24 mph 1009.1mb 60f
10:00pm 22 26 mph 1009.4mb 60f
9:00pm 21 23 mph 1009.7mb 60f
8:00pm 23 25 mph 1009.7mb 60f
7:00pm 21 24 mph 1009.9mb 60f
6:00pm 22 24 mph 1010.1mb 60f
5:00pm 21 23 mph 1010.4mb 60f
4:00pm 21 23 mph 1010.7mb 60f
3:00pm 24 25 mph 1011.2mb 59f
2:00pm 20 22 mph 1011.8mb 59f
1:00pm 23 26 mph 1012.4mb 59f
12:00pm 17 20 mph 1012.7mb 60f
11:00am 21 23 mph 1012.8mb 60f
10:00am 23 25 mph 1012.7mb 60f
9:00am 20 22 mph 1012.9mb 60f
8:00am 18 21 mph 1012.7mb 60f
7:00am 18 22 mph 1012.4mb 59f
6:00am 17 20 mph 1012.1mb 59f
5:00am 17 20 mph 1012.1mb 59f
4:00am 10 11 mph 1012.6mb 59f
3:00am 13
mph
1013.2mb 59f
2:00am 15 17 mph 1013.5mb 59f
1:00am 16 18 mph 1013.7mb 60f
12:00am 18 22 mph 1013.8mb 60f
Mon 09/29 11:00pm 14 17 mph 1014.2mb 60f
10:00pm 23 25 mph 1013.9mb 61f
9:00pm 25 28 mph 1013.4mb 61f
8:00pm 21 24 mph 1013.1mb 61f
7:00pm 16 17 mph 1012.9mb 61f
6:00pm 15 17 mph 1013.3mb 61f
5:00pm 16 17 mph 1013.1mb 61f
4:00pm 23 26 mph 1013mb 61f
3:00pm 18 22 mph 1013.3mb 62f
2:00pm 20 22 mph 1013.7mb 62f
1:00pm 15 20 mph 1014.7mb 62f
12:00pm 15 16 mph 1015.1mb 60f
11:00am 18 21 mph 1014.9mb 60f
10:00am 17 18 mph 1015mb 61f
9:00am 20 22 mph 1015mb 60f
8:00am 14 16 mph 1014.5mb 60f
7:00am 21 23 mph 1013.8mb 60f
6:00am 17 21 mph 1013.7mb 60f
5:00am 15 18 mph 1013.4mb 60f
4:00am 13 14 mph 1013.7mb 59f
3:00am 15 16 mph 1013.5mb 60f
2:00am 11 13 mph 1013.9mb 60f
1:00am 13 14 mph 1013.9mb 60f
12:00am 13 15 mph 1013.8mb 60f
Sun 09/28 11:00pm 10 11 mph 1013.8mb 60f
10:00pm 13 14 mph 1013.8mb 60f
9:00pm 13 15 mph 1013.6mb 61f
8:00pm 15
mph
1013.2mb 61f
7:00pm 15 16 mph 1012.8mb 62f
6:00pm 14
mph
1012.8mb 62f
5:00pm 9 10 mph 1013mb 62f
4:00pm 10
mph
1013.3mb 63f
3:00pm 11
mph
1013.6mb 63f
2:00pm 11
mph
1013.7mb 63f
1:00pm 10
mph
1014mb 63f
12:00pm 11 13 mph 1014.2mb 63f
11:00am 15 16 mph 1014.4mb 64f
10:00am 3 5 mph 1014.6mb 60f
9:00am 7
mph
1014mb 60f
8:00am 8 9 mph 1013.6mb 60f
7:00am 10 11 mph 1012.4mb 60f
6:00am 14 15 mph 1012.2mb 60f
5:00am 15 17 mph 1011.6mb 60f
4:00am 16 17 mph 1011.1mb 61f
3:00am 15 17 mph 1011.4mb 61f
2:00am 16 17 mph 1011.5mb 61f
1:00am 17 20 mph 1011.8mb 61f
12:00am 17
mph
1012mb 61f
Sat 09/27 11:00pm 14 15 mph 1012.4mb 61f
10:00pm 13 14 mph 1012.8mb 61f
9:00pm 20 21 mph 1012.1mb 61f
8:00pm 18 20 mph 1011.8mb 61f
7:00pm 18 21 mph 1011.5mb 61f